sensor_id;sensor_type;location;lat;lon;timestamp;temperature;humidity
5334;DHT22;2689;50.954;7.116;2022-11-18T00:01:05;10.60;99.90
5334;DHT22;2689;50.954;7.116;2022-11-18T00:03:34;10.60;99.90
5334;DHT22;2689;50.954;7.116;2022-11-18T00:06:02;10.60;99.90
5334;DHT22;2689;50.954;7.116;2022-11-18T00:08:29;10.60;99.90
5334;DHT22;2689;50.954;7.116;2022-11-18T00:10:57;10.60;99.90
5334;DHT22;2689;50.954;7.116;2022-11-18T00:13:24;10.70;99.90
5334;DHT22;2689;50.954;7.116;2022-11-18T00:16:10;10.70;99.90
5334;DHT22;2689;50.954;7.116;2022-11-18T00:18:38;10.70;99.90
5334;DHT22;2689;50.954;7.116;2022-11-18T00:21:07;10.70;99.90
5334;DHT22;2689;50.954;7.116;2022-11-18T00:23:35;10.70;99.90
5334;DHT22;2689;50.954;7.116;2022-11-18T00:26:02;10.70;99.90
5334;DHT22;2689;50.954;7.116;2022-11-18T00:28:29;10.70;99.90
5334;DHT22;2689;50.954;7.116;2022-11-18T00:31:00;10.70;99.90
5334;DHT22;2689;50.954;7.116;2022-11-18T00:33:28;10.70;99.90
5334;DHT22;2689;50.954;7.116;2022-11-18T00:35:56;10.70;99.90
5334;DHT22;2689;50.954;7.116;2022-11-18T00:38:23;10.70;99.90
5334;DHT22;2689;50.954;7.116;2022-11-18T00:40:58;10.70;99.90
5334;DHT22;2689;50.954;7.116;2022-11-18T00:43:25;10.70;99.90
5334;DHT22;2689;50.954;7.116;2022-11-18T00:45:51;10.70;99.90
5334;DHT22;2689;50.954;7.116;2022-11-18T00:48:18;10.70;99.90
5334;DHT22;2689;50.954;7.116;2022-11-18T00:50:46;10.70;99.90
5334;DHT22;2689;50.954;7.116;2022-11-18T00:53:15;10.70;99.90
5334;DHT22;2689;50.954;7.116;2022-11-18T00:55:43;10.60;99.90
5334;DHT22;2689;50.954;7.116;2022-11-18T00:58:10;10.60;99.90
5334;DHT22;2689;50.954;7.116;2022-11-18T01:00:39;10.60;99.90
5334;DHT22;2689;50.954;7.116;2022-11-18T01:03:06;10.60;99.90
5334;DHT22;2689;50.954;7.116;2022-11-18T01:05:33;10.50;99.90
5334;DHT22;2689;50.954;7.116;2022-11-18T01:08:00;10.60;99.90
5334;DHT22;2689;50.954;7.116;2022-11-18T01:10:29;10.50;99.90
5334;DHT22;2689;50.954;7.116;2022-11-18T01:12:56;10.50;99.90
5334;DHT22;2689;50.954;7.116;2022-11-18T01:15:42;10.50;99.90
5334;DHT22;2689;50.954;7.116;2022-11-18T01:18:09;10.50;99.90
5334;DHT22;2689;50.954;7.116;2022-11-18T01:20:36;10.40;99.90
5334;DHT22;2689;50.954;7.116;2022-11-18T01:23:04;10.40;99.90
5334;DHT22;2689;50.954;7.116;2022-11-18T01:25:34;10.40;99.90
5334;DHT22;2689;50.954;7.116;2022-11-18T01:28:01;10.40;99.90
5334;DHT22;2689;50.954;7.116;2022-11-18T01:30:28;10.40;99.90
5334;DHT22;2689;50.954;7.116;2022-11-18T01:32:56;10.30;99.90
5334;DHT22;2689;50.954;7.116;2022-11-18T01:35:24;10.30;99.90
5334;DHT22;2689;50.954;7.116;2022-11-18T01:37:51;10.40;99.90
5334;DHT22;2689;50.954;7.116;2022-11-18T01:40:18;10.30;99.90
5334;DHT22;2689;50.954;7.116;2022-11-18T01:42:46;10.30;99.90
5334;DHT22;2689;50.954;7.116;2022-11-18T01:45:25;10.30;99.90
5334;DHT22;2689;50.954;7.116;2022-11-18T01:47:58;10.40;99.90
5334;DHT22;2689;50.954;7.116;2022-11-18T01:50:27;10.40;99.90
5334;DHT22;2689;50.954;7.116;2022-11-18T01:52:59;10.40;99.90
5334;DHT22;2689;50.954;7.116;2022-11-18T01:55:31;10.40;99.90
5334;DHT22;2689;50.954;7.116;2022-11-18T01:58:06;10.40;99.90
5334;DHT22;2689;50.954;7.116;2022-11-18T02:00:34;10.40;99.90
5334;DHT22;2689;50.954;7.116;2022-11-18T02:03:01;10.40;99.90
5334;DHT22;2689;50.954;7.116;2022-11-18T02:05:29;10.40;99.90
5334;DHT22;2689;50.954;7.116;2022-11-18T02:07:59;10.40;99.90
5334;DHT22;2689;50.954;7.116;2022-11-18T02:10:26;10.30;99.90
5334;DHT22;2689;50.954;7.116;2022-11-18T02:12:54;10.40;99.90
5334;DHT22;2689;50.954;7.116;2022-11-18T02:15:37;10.30;99.90
5334;DHT22;2689;50.954;7.116;2022-11-18T02:18:11;10.40;99.90
5334;DHT22;2689;50.954;7.116;2022-11-18T02:20:41;10.40;99.90
5334;DHT22;2689;50.954;7.116;2022-11-18T02:23:26;10.30;99.90
5334;DHT22;2689;50.954;7.116;2022-11-18T02:26:10;10.30;99.90
5334;DHT22;2689;50.954;7.116;2022-11-18T02:28:56;10.30;99.90
5334;DHT22;2689;50.954;7.116;2022-11-18T02:31:31;10.20;99.90
5334;DHT22;2689;50.954;7.116;2022-11-18T02:34:03;10.20;99.90
5334;DHT22;2689;50.954;7.116;2022-11-18T02:36:38;10.20;99.90
5334;DHT22;2689;50.954;7.116;2022-11-18T02:39:09;10.20;99.90
5334;DHT22;2689;50.954;7.116;2022-11-18T02:41:40;10.20;99.90
5334;DHT22;2689;50.954;7.116;2022-11-18T02:44:12;10.20;99.90
5334;DHT22;2689;50.954;7.116;2022-11-18T02:46:42;10.10;99.90
5334;DHT22;2689;50.954;7.116;2022-11-18T02:49:14;10.10;99.90
5334;DHT22;2689;50.954;7.116;2022-11-18T02:51:44;10.10;99.90
5334;DHT22;2689;50.954;7.116;2022-11-18T02:54:12;10.10;99.90
5334;DHT22;2689;50.954;7.116;2022-11-18T02:56:42;10.10;99.90
5334;DHT22;2689;50.954;7.116;2022-11-18T02:59:10;10.10;99.90
5334;DHT22;2689;50.954;7.116;2022-11-18T03:01:37;10.10;99.90
5334;DHT22;2689;50.954;7.116;2022-11-18T03:04:04;10.10;99.90
5334;DHT22;2689;50.954;7.116;2022-11-18T03:06:34;10.10;99.90
5334;DHT22;2689;50.954;7.116;2022-11-18T03:09:08;10.10;99.90
5334;DHT22;2689;50.954;7.116;2022-11-18T03:11:45;10.10;99.90
5334;DHT22;2689;50.954;7.116;2022-11-18T03:14:23;10.00;99.90
5334;DHT22;2689;50.954;7.116;2022-11-18T03:16:57;10.00;99.90
5334;DHT22;2689;50.954;7.116;2022-11-18T03:19:32;10.00;99.90
5334;DHT22;2689;50.954;7.116;2022-11-18T03:22:06;10.00;99.90
5334;DHT22;2689;50.954;7.116;2022-11-18T03:24:38;10.00;99.90
5334;DHT22;2689;50.954;7.116;2022-11-18T03:27:09;10.00;99.90
5334;DHT22;2689;50.954;7.116;2022-11-18T03:29:43;10.00;99.90
5334;DHT22;2689;50.954;7.116;2022-11-18T03:32:13;10.00;99.90
5334;DHT22;2689;50.954;7.116;2022-11-18T03:34:43;10.00;99.90
5334;DHT22;2689;50.954;7.116;2022-11-18T03:37:13;10.00;99.90
5334;DHT22;2689;50.954;7.116;2022-11-18T03:39:43;10.00;99.90
5334;DHT22;2689;50.954;7.116;2022-11-18T03:42:16;10.00;99.90
5334;DHT22;2689;50.954;7.116;2022-11-18T03:44:51;10.00;99.90
5334;DHT22;2689;50.954;7.116;2022-11-18T03:47:23;10.00;99.90
5334;DHT22;2689;50.954;7.116;2022-11-18T03:49:54;10.10;99.90
5334;DHT22;2689;50.954;7.116;2022-11-18T03:52:26;10.00;99.90
5334;DHT22;2689;50.954;7.116;2022-11-18T03:54:56;10.00;99.90
5334;DHT22;2689;50.954;7.116;2022-11-18T03:57:26;10.00;99.90
5334;DHT22;2689;50.954;7.116;2022-11-18T04:00:02;10.10;99.90
5334;DHT22;2689;50.954;7.116;2022-11-18T04:02:31;10.10;99.90
5334;DHT22;2689;50.954;7.116;2022-11-18T04:04:59;10.10;99.90
5334;DHT22;2689;50.954;7.116;2022-11-18T04:07:32;10.10;99.90
5334;DHT22;2689;50.954;7.116;2022-11-18T04:10:03;10.10;99.90
5334;DHT22;2689;50.954;7.116;2022-11-18T04:12:34;10.00;99.90
5334;DHT22;2689;50.954;7.116;2022-11-18T04:15:05;10.00;99.90
5334;DHT22;2689;50.954;7.116;2022-11-18T04:17:33;10.00;99.90
5334;DHT22;2689;50.954;7.116;2022-11-18T04:20:00;10.00;99.90
5334;DHT22;2689;50.954;7.116;2022-11-18T04:22:27;9.90;99.90
5334;DHT22;2689;50.954;7.116;2022-11-18T04:24:54;10.00;99.90
5334;DHT22;2689;50.954;7.116;2022-11-18T04:27:21;10.00;99.90
5334;DHT22;2689;50.954;7.116;2022-11-18T04:29:48;10.00;99.90
5334;DHT22;2689;50.954;7.116;2022-11-18T04:32:17;10.00;99.90
5334;DHT22;2689;50.954;7.116;2022-11-18T04:34:44;9.90;99.90
5334;DHT22;2689;50.954;7.116;2022-11-18T04:37:11;9.80;99.90
5334;DHT22;2689;50.954;7.116;2022-11-18T04:39:38;9.80;99.90
5334;DHT22;2689;50.954;7.116;2022-11-18T04:42:05;9.80;99.90
5334;DHT22;2689;50.954;7.116;2022-11-18T04:44:33;9.70;99.90
5334;DHT22;2689;50.954;7.116;2022-11-18T04:47:02;9.70;99.90
5334;DHT22;2689;50.954;7.116;2022-11-18T04:49:33;9.70;99.90
5334;DHT22;2689;50.954;7.116;2022-11-18T04:52:01;9.60;99.90
5334;DHT22;2689;50.954;7.116;2022-11-18T04:54:28;9.70;99.90
5334;DHT22;2689;50.954;7.116;2022-11-18T04:56:55;9.70;99.90
5334;DHT22;2689;50.954;7.116;2022-11-18T04:59:23;9.70;99.90
5334;DHT22;2689;50.954;7.116;2022-11-18T05:01:51;9.80;99.90
5334;DHT22;2689;50.954;7.116;2022-11-18T05:04:20;9.80;99.90
5334;DHT22;2689;50.954;7.116;2022-11-18T05:06:49;9.90;99.90
5334;DHT22;2689;50.954;7.116;2022-11-18T05:09:17;9.90;99.90
5334;DHT22;2689;50.954;7.116;2022-11-18T05:11:44;9.90;99.90
5334;DHT22;2689;50.954;7.116;2022-11-18T05:14:29;9.90;99.90
5334;DHT22;2689;50.954;7.116;2022-11-18T05:16:58;9.90;99.90
5334;DHT22;2689;50.954;7.116;2022-11-18T05:19:25;9.90;99.90
5334;DHT22;2689;50.954;7.116;2022-11-18T05:21:53;10.00;99.90
5334;DHT22;2689;50.954;7.116;2022-11-18T05:24:21;10.00;99.90
5334;DHT22;2689;50.954;7.116;2022-11-18T05:26:49;9.90;99.90
5334;DHT22;2689;50.954;7.116;2022-11-18T05:29:17;9.90;99.90
5334;DHT22;2689;50.954;7.116;2022-11-18T05:31:45;9.90;99.90
5334;DHT22;2689;50.954;7.116;2022-11-18T05:34:12;9.90;99.90
5334;DHT22;2689;50.954;7.116;2022-11-18T05:36:39;10.00;99.90
5334;DHT22;2689;50.954;7.116;2022-11-18T05:39:07;10.00;99.90
5334;DHT22;2689;50.954;7.116;2022-11-18T05:41:35;10.00;99.90
5334;DHT22;2689;50.954;7.116;2022-11-18T05:44:19;10.00;99.90
5334;DHT22;2689;50.954;7.116;2022-11-18T05:46:46;10.00;99.90
5334;DHT22;2689;50.954;7.116;2022-11-18T05:49:13;10.10;99.90
5334;DHT22;2689;50.954;7.116;2022-11-18T05:51:41;10.10;99.90
5334;DHT22;2689;50.954;7.116;2022-11-18T05:54:10;10.10;99.90
5334;DHT22;2689;50.954;7.116;2022-11-18T05:56:40;10.10;99.90
5334;DHT22;2689;50.954;7.116;2022-11-18T05:59:09;10.10;99.90
5334;DHT22;2689;50.954;7.116;2022-11-18T06:01:40;10.10;99.90
5334;DHT22;2689;50.954;7.116;2022-11-18T06:04:14;10.20;99.90
5334;DHT22;2689;50.954;7.116;2022-11-18T06:06:42;10.20;99.90
5334;DHT22;2689;50.954;7.116;2022-11-18T06:09:14;10.30;99.90
5334;DHT22;2689;50.954;7.116;2022-11-18T06:11:45;10.20;99.90
5334;DHT22;2689;50.954;7.116;2022-11-18T06:14:16;10.30;99.90
5334;DHT22;2689;50.954;7.116;2022-11-18T06:16:58;10.20;99.90
5334;DHT22;2689;50.954;7.116;2022-11-18T06:19:27;10.20;99.90
5334;DHT22;2689;50.954;7.116;2022-11-18T06:21:54;10.30;99.90
5334;DHT22;2689;50.954;7.116;2022-11-18T06:24:23;10.20;99.90
5334;DHT22;2689;50.954;7.116;2022-11-18T06:26:50;10.20;99.90
5334;DHT22;2689;50.954;7.116;2022-11-18T06:29:21;10.20;99.90
5334;DHT22;2689;50.954;7.116;2022-11-18T06:31:50;10.20;99.90
5334;DHT22;2689;50.954;7.116;2022-11-18T06:34:19;10.20;99.90
5334;DHT22;2689;50.954;7.116;2022-11-18T06:36:46;10.10;99.90
5334;DHT22;2689;50.954;7.116;2022-11-18T06:39:13;10.10;99.90
5334;DHT22;2689;50.954;7.116;2022-11-18T06:41:41;10.10;99.90
5334;DHT22;2689;50.954;7.116;2022-11-18T06:44:10;10.10;99.90
5334;DHT22;2689;50.954;7.116;2022-11-18T06:46:37;10.10;99.90
5334;DHT22;2689;50.954;7.116;2022-11-18T06:49:23;10.20;99.90
5334;DHT22;2689;50.954;7.116;2022-11-18T06:51:51;10.20;99.90
5334;DHT22;2689;50.954;7.116;2022-11-18T06:54:19;10.20;99.90
5334;DHT22;2689;50.954;7.116;2022-11-18T06:56:49;10.20;99.90
5334;DHT22;2689;50.954;7.116;2022-11-18T06:59:16;10.30;99.90
5334;DHT22;2689;50.954;7.116;2022-11-18T07:01:48;10.30;99.90
5334;DHT22;2689;50.954;7.116;2022-11-18T07:04:15;10.30;99.90
5334;DHT22;2689;50.954;7.116;2022-11-18T07:06:42;10.30;99.90
5334;DHT22;2689;50.954;7.116;2022-11-18T07:09:08;10.40;99.90
5334;DHT22;2689;50.954;7.116;2022-11-18T07:11:36;10.40;99.90
5334;DHT22;2689;50.954;7.116;2022-11-18T07:14:07;10.40;99.90
5334;DHT22;2689;50.954;7.116;2022-11-18T07:16:34;10.40;99.90
5334;DHT22;2689;50.954;7.116;2022-11-18T07:19:07;10.40;99.90
5334;DHT22;2689;50.954;7.116;2022-11-18T07:21:35;10.40;99.90
5334;DHT22;2689;50.954;7.116;2022-11-18T07:24:04;10.40;99.90
5334;DHT22;2689;50.954;7.116;2022-11-18T07:26:31;10.40;99.90
5334;DHT22;2689;50.954;7.116;2022-11-18T07:28:58;10.50;99.90
5334;DHT22;2689;50.954;7.116;2022-11-18T07:31:27;10.50;99.90
5334;DHT22;2689;50.954;7.116;2022-11-18T07:33:54;10.50;99.90
5334;DHT22;2689;50.954;7.116;2022-11-18T07:36:23;10.60;99.90
5334;DHT22;2689;50.954;7.116;2022-11-18T07:38:52;10.60;99.90
5334;DHT22;2689;50.954;7.116;2022-11-18T07:41:21;10.60;99.90
5334;DHT22;2689;50.954;7.116;2022-11-18T07:43:49;10.60;99.90
5334;DHT22;2689;50.954;7.116;2022-11-18T07:46:18;10.60;99.90
5334;DHT22;2689;50.954;7.116;2022-11-18T07:48:48;10.60;99.90
5334;DHT22;2689;50.954;7.116;2022-11-18T07:51:17;10.70;99.90
5334;DHT22;2689;50.954;7.116;2022-11-18T07:53:45;10.70;99.90
5334;DHT22;2689;50.954;7.116;2022-11-18T07:56:12;10.80;99.90
5334;DHT22;2689;50.954;7.116;2022-11-18T07:58:40;10.80;99.90
5334;DHT22;2689;50.954;7.116;2022-11-18T08:01:07;10.80;99.90
5334;DHT22;2689;50.954;7.116;2022-11-18T08:03:34;10.80;99.90
5334;DHT22;2689;50.954;7.116;2022-11-18T08:06:04;10.90;99.90
5334;DHT22;2689;50.954;7.116;2022-11-18T08:08:32;10.90;99.90
5334;DHT22;2689;50.954;7.116;2022-11-18T08:11:00;11.00;99.90
5334;DHT22;2689;50.954;7.116;2022-11-18T08:13:28;11.00;99.90
5334;DHT22;2689;50.954;7.116;2022-11-18T08:15:55;11.10;99.90
5334;DHT22;2689;50.954;7.116;2022-11-18T08:18:22;11.10;99.90
5334;DHT22;2689;50.954;7.116;2022-11-18T08:20:50;11.10;99.90
5334;DHT22;2689;50.954;7.116;2022-11-18T08:23:18;11.00;99.90
5334;DHT22;2689;50.954;7.116;2022-11-18T08:25:46;11.10;99.90
5334;DHT22;2689;50.954;7.116;2022-11-18T08:28:13;11.10;99.90
5334;DHT22;2689;50.954;7.116;2022-11-18T08:30:40;11.10;99.90
5334;DHT22;2689;50.954;7.116;2022-11-18T08:33:07;11.10;99.90
5334;DHT22;2689;50.954;7.116;2022-11-18T08:35:34;11.20;99.90
5334;DHT22;2689;50.954;7.116;2022-11-18T08:38:01;11.20;99.90
5334;DHT22;2689;50.954;7.116;2022-11-18T08:40:29;11.30;99.90
5334;DHT22;2689;50.954;7.116;2022-11-18T08:42:56;11.30;99.90
5334;DHT22;2689;50.954;7.116;2022-11-18T08:45:23;11.40;99.90
5334;DHT22;2689;50.954;7.116;2022-11-18T08:47:51;11.40;99.90
5334;DHT22;2689;50.954;7.116;2022-11-18T08:50:18;11.50;99.90
5334;DHT22;2689;50.954;7.116;2022-11-18T08:52:45;11.50;99.90
5334;DHT22;2689;50.954;7.116;2022-11-18T08:55:12;11.50;99.90
5334;DHT22;2689;50.954;7.116;2022-11-18T08:57:41;11.60;99.90
5334;DHT22;2689;50.954;7.116;2022-11-18T09:00:09;11.60;99.90
5334;DHT22;2689;50.954;7.116;2022-11-18T09:02:36;11.60;99.90
5334;DHT22;2689;50.954;7.116;2022-11-18T09:05:03;11.70;99.90
5334;DHT22;2689;50.954;7.116;2022-11-18T09:07:30;11.80;99.90
5334;DHT22;2689;50.954;7.116;2022-11-18T09:09:57;11.90;99.90
5334;DHT22;2689;50.954;7.116;2022-11-18T09:12:24;12.00;99.90
5334;DHT22;2689;50.954;7.116;2022-11-18T09:14:52;12.10;99.90
5334;DHT22;2689;50.954;7.116;2022-11-18T09:17:19;12.10;99.90
5334;DHT22;2689;50.954;7.116;2022-11-18T09:19:47;12.20;99.90
5334;DHT22;2689;50.954;7.116;2022-11-18T09:22:14;12.20;99.90
5334;DHT22;2689;50.954;7.116;2022-11-18T09:24:41;12.30;99.90
5334;DHT22;2689;50.954;7.116;2022-11-18T09:27:08;12.30;99.90
5334;DHT22;2689;50.954;7.116;2022-11-18T09:29:35;12.20;99.90
5334;DHT22;2689;50.954;7.116;2022-11-18T09:32:03;12.30;99.90
5334;DHT22;2689;50.954;7.116;2022-11-18T09:34:33;12.40;99.90
5334;DHT22;2689;50.954;7.116;2022-11-18T09:37:01;12.40;99.90
5334;DHT22;2689;50.954;7.116;2022-11-18T09:39:30;12.50;99.90
5334;DHT22;2689;50.954;7.116;2022-11-18T09:42:05;12.60;99.90
5334;DHT22;2689;50.954;7.116;2022-11-18T09:44:51;12.70;99.90
5334;DHT22;2689;50.954;7.116;2022-11-18T09:47:25;12.70;99.90
5334;DHT22;2689;50.954;7.116;2022-11-18T09:49:54;12.80;99.90
5334;DHT22;2689;50.954;7.116;2022-11-18T09:52:26;12.90;99.90
5334;DHT22;2689;50.954;7.116;2022-11-18T09:54:53;13.00;99.90
5334;DHT22;2689;50.954;7.116;2022-11-18T09:57:23;13.00;99.90
5334;DHT22;2689;50.954;7.116;2022-11-18T09:59:51;13.00;99.90
5334;DHT22;2689;50.954;7.116;2022-11-18T10:02:28;13.10;99.90
5334;DHT22;2689;50.954;7.116;2022-11-18T10:04:56;12.90;99.90
5334;DHT22;2689;50.954;7.116;2022-11-18T10:07:34;12.90;99.90
5334;DHT22;2689;50.954;7.116;2022-11-18T10:10:06;12.90;99.90
5334;DHT22;2689;50.954;7.116;2022-11-18T10:12:40;12.90;99.90
5334;DHT22;2689;50.954;7.116;2022-11-18T10:15:18;12.80;99.90
5334;DHT22;2689;50.954;7.116;2022-11-18T10:17:54;12.80;99.90
5334;DHT22;2689;50.954;7.116;2022-11-18T10:20:32;12.80;99.90
5334;DHT22;2689;50.954;7.116;2022-11-18T10:23:10;12.70;99.90
5334;DHT22;2689;50.954;7.116;2022-11-18T10:25:40;12.80;99.90
5334;DHT22;2689;50.954;7.116;2022-11-18T10:28:15;12.80;99.90
5334;DHT22;2689;50.954;7.116;2022-11-18T10:30:42;12.90;99.90
5334;DHT22;2689;50.954;7.116;2022-11-18T10:33:23;13.00;99.90
5334;DHT22;2689;50.954;7.116;2022-11-18T10:36:08;13.10;99.90
5334;DHT22;2689;50.954;7.116;2022-11-18T10:38:35;13.10;99.90
5334;DHT22;2689;50.954;7.116;2022-11-18T10:41:05;13.10;99.90
5334;DHT22;2689;50.954;7.116;2022-11-18T10:43:48;13.10;99.90
5334;DHT22;2689;50.954;7.116;2022-11-18T10:46:23;13.10;99.90
5334;DHT22;2689;50.954;7.116;2022-11-18T10:49:15;13.10;99.90
5334;DHT22;2689;50.954;7.116;2022-11-18T10:51:43;13.10;99.90
5334;DHT22;2689;50.954;7.116;2022-11-18T10:54:15;13.20;99.90
5334;DHT22;2689;50.954;7.116;2022-11-18T10:56:48;13.10;99.90
5334;DHT22;2689;50.954;7.116;2022-11-18T10:59:25;13.10;99.90
5334;DHT22;2689;50.954;7.116;2022-11-18T11:02:00;13.10;99.90
5334;DHT22;2689;50.954;7.116;2022-11-18T11:04:31;13.10;99.90
5334;DHT22;2689;50.954;7.116;2022-11-18T11:06:58;13.10;99.90
5334;DHT22;2689;50.954;7.116;2022-11-18T11:09:28;13.00;99.90
5334;DHT22;2689;50.954;7.116;2022-11-18T11:11:58;12.90;99.90
5334;DHT22;2689;50.954;7.116;2022-11-18T11:14:30;13.00;99.90
5334;DHT22;2689;50.954;7.116;2022-11-18T11:17:05;13.10;99.90
5334;DHT22;2689;50.954;7.116;2022-11-18T11:19:46;13.20;99.90
5334;DHT22;2689;50.954;7.116;2022-11-18T11:22:18;13.30;99.90
5334;DHT22;2689;50.954;7.116;2022-11-18T11:24:46;13.50;99.90
5334;DHT22;2689;50.954;7.116;2022-11-18T11:30:16;14.20;99.90
5334;DHT22;2689;50.954;7.116;2022-11-18T11:35:49;14.70;99.90
5334;DHT22;2689;50.954;7.116;2022-11-18T11:38:28;14.60;98.80
5334;DHT22;2689;50.954;7.116;2022-11-18T11:41:05;14.60;98.90
5334;DHT22;2689;50.954;7.116;2022-11-18T11:43:44;14.50;99.40
5334;DHT22;2689;50.954;7.116;2022-11-18T11:46:28;14.40;99.20
5334;DHT22;2689;50.954;7.116;2022-11-18T11:49:09;14.40;99.30
5334;DHT22;2689;50.954;7.116;2022-11-18T11:51:49;14.30;99.30
5334;DHT22;2689;50.954;7.116;2022-11-18T11:54:36;14.30;99.90
5334;DHT22;2689;50.954;7.116;2022-11-18T11:57:13;14.20;99.90
5334;DHT22;2689;50.954;7.116;2022-11-18T11:59:53;14.10;99.50
5334;DHT22;2689;50.954;7.116;2022-11-18T12:02:43;13.80;98.90
5334;DHT22;2689;50.954;7.116;2022-11-18T12:05:19;13.60;99.20
5334;DHT22;2689;50.954;7.116;2022-11-18T12:07:53;13.30;99.90
5334;DHT22;2689;50.954;7.116;2022-11-18T12:10:43;13.20;99.90
5334;DHT22;2689;50.954;7.116;2022-11-18T12:13:22;13.10;99.90
5334;DHT22;2689;50.954;7.116;2022-11-18T12:16:17;13.10;99.90
5334;DHT22;2689;50.954;7.116;2022-11-18T12:18:49;13.10;99.90
5334;DHT22;2689;50.954;7.116;2022-11-18T12:21:59;13.20;99.90
5334;DHT22;2689;50.954;7.116;2022-11-18T12:24:41;13.20;99.90
5334;DHT22;2689;50.954;7.116;2022-11-18T12:27:55;13.20;99.90
5334;DHT22;2689;50.954;7.116;2022-11-18T12:30:25;13.30;99.90
5334;DHT22;2689;50.954;7.116;2022-11-18T12:32:55;13.30;99.90
5334;DHT22;2689;50.954;7.116;2022-11-18T12:35:25;13.40;99.90
5334;DHT22;2689;50.954;7.116;2022-11-18T12:38:01;13.50;99.90
5334;DHT22;2689;50.954;7.116;2022-11-18T12:40:35;13.50;99.90
5334;DHT22;2689;50.954;7.116;2022-11-18T12:43:04;13.60;99.90
5334;DHT22;2689;50.954;7.116;2022-11-18T12:45:52;13.60;99.90
5334;DHT22;2689;50.954;7.116;2022-11-18T12:48:37;13.60;99.40
5334;DHT22;2689;50.954;7.116;2022-11-18T12:54:27;13.50;98.50
5334;DHT22;2689;50.954;7.116;2022-11-18T12:56:58;13.50;99.30
5334;DHT22;2689;50.954;7.116;2022-11-18T12:59:27;13.50;98.80
5334;DHT22;2689;50.954;7.116;2022-11-18T13:02:18;13.50;98.70
5334;DHT22;2689;50.954;7.116;2022-11-18T13:05:02;13.40;98.60
5334;DHT22;2689;50.954;7.116;2022-11-18T13:07:37;13.50;99.30
5334;DHT22;2689;50.954;7.116;2022-11-18T13:10:24;13.60;99.30
5334;DHT22;2689;50.954;7.116;2022-11-18T13:12:53;13.70;99.60
5334;DHT22;2689;50.954;7.116;2022-11-18T13:15:22;13.80;99.10
5334;DHT22;2689;50.954;7.116;2022-11-18T13:18:12;13.90;98.50
5334;DHT22;2689;50.954;7.116;2022-11-18T13:20:41;13.90;98.10
5334;DHT22;2689;50.954;7.116;2022-11-18T13:23:27;13.80;98.20
5334;DHT22;2689;50.954;7.116;2022-11-18T13:26:18;13.70;98.70
5334;DHT22;2689;50.954;7.116;2022-11-18T13:29:20;13.60;99.10
5334;DHT22;2689;50.954;7.116;2022-11-18T13:31:58;13.50;99.10
5334;DHT22;2689;50.954;7.116;2022-11-18T13:34:29;13.50;99.10
5334;DHT22;2689;50.954;7.116;2022-11-18T13:36:58;13.40;99.30
5334;DHT22;2689;50.954;7.116;2022-11-18T13:39:28;13.30;99.70
5334;DHT22;2689;50.954;7.116;2022-11-18T13:42:00;13.20;99.90
5334;DHT22;2689;50.954;7.116;2022-11-18T13:44:31;13.20;99.90
5334;DHT22;2689;50.954;7.116;2022-11-18T13:47:04;13.20;99.90
5334;DHT22;2689;50.954;7.116;2022-11-18T13:49:40;13.20;99.90
5334;DHT22;2689;50.954;7.116;2022-11-18T13:52:11;13.20;99.90
5334;DHT22;2689;50.954;7.116;2022-11-18T13:54:40;13.20;99.90
5334;DHT22;2689;50.954;7.116;2022-11-18T13:57:16;13.20;99.90
5334;DHT22;2689;50.954;7.116;2022-11-18T13:59:49;13.20;99.90
5334;DHT22;2689;50.954;7.116;2022-11-18T14:02:17;13.20;99.90
5334;DHT22;2689;50.954;7.116;2022-11-18T14:04:50;13.10;99.90
5334;DHT22;2689;50.954;7.116;2022-11-18T14:07:30;13.10;99.90
5334;DHT22;2689;50.954;7.116;2022-11-18T14:10:00;13.10;99.90
5334;DHT22;2689;50.954;7.116;2022-11-18T14:12:28;13.20;99.90
5334;DHT22;2689;50.954;7.116;2022-11-18T14:15:18;13.10;99.90
5334;DHT22;2689;50.954;7.116;2022-11-18T14:17:52;13.10;99.90
5334;DHT22;2689;50.954;7.116;2022-11-18T14:20:20;13.10;99.90
5334;DHT22;2689;50.954;7.116;2022-11-18T14:22:53;13.10;99.90
5334;DHT22;2689;50.954;7.116;2022-11-18T14:25:26;13.10;99.90
5334;DHT22;2689;50.954;7.116;2022-11-18T14:27:55;13.10;99.90
5334;DHT22;2689;50.954;7.116;2022-11-18T14:30:33;13.10;99.90
5334;DHT22;2689;50.954;7.116;2022-11-18T14:33:14;13.10;99.90
5334;DHT22;2689;50.954;7.116;2022-11-18T14:35:43;13.10;99.90
5334;DHT22;2689;50.954;7.116;2022-11-18T14:38:16;13.10;99.90
5334;DHT22;2689;50.954;7.116;2022-11-18T14:40:43;13.00;99.90
5334;DHT22;2689;50.954;7.116;2022-11-18T14:43:11;12.90;99.90
5334;DHT22;2689;50.954;7.116;2022-11-18T14:45:40;12.90;99.90
5334;DHT22;2689;50.954;7.116;2022-11-18T14:48:11;12.80;99.90
5334;DHT22;2689;50.954;7.116;2022-11-18T14:50:42;12.70;99.90
5334;DHT22;2689;50.954;7.116;2022-11-18T14:53:12;12.70;99.90
5334;DHT22;2689;50.954;7.116;2022-11-18T14:55:44;12.60;99.90
5334;DHT22;2689;50.954;7.116;2022-11-18T14:58:14;12.60;99.90
5334;DHT22;2689;50.954;7.116;2022-11-18T15:00:43;12.60;99.90
5334;DHT22;2689;50.954;7.116;2022-11-18T15:03:11;12.50;99.90
5334;DHT22;2689;50.954;7.116;2022-11-18T15:05:39;12.50;99.90
5334;DHT22;2689;50.954;7.116;2022-11-18T15:08:08;12.50;99.90
5334;DHT22;2689;50.954;7.116;2022-11-18T15:10:35;12.40;99.90
5334;DHT22;2689;50.954;7.116;2022-11-18T15:13:03;12.30;99.90
5334;DHT22;2689;50.954;7.116;2022-11-18T15:15:30;12.20;99.90
5334;DHT22;2689;50.954;7.116;2022-11-18T15:17:59;12.20;99.90
5334;DHT22;2689;50.954;7.116;2022-11-18T15:33:23;11.60;99.90
5334;DHT22;2689;50.954;7.116;2022-11-18T15:35:51;11.50;99.90
5334;DHT22;2689;50.954;7.116;2022-11-18T15:38:19;11.50;99.90
5334;DHT22;2689;50.954;7.116;2022-11-18T15:40:46;11.50;99.90
5334;DHT22;2689;50.954;7.116;2022-11-18T15:43:13;11.50;99.90
5334;DHT22;2689;50.954;7.116;2022-11-18T15:45:44;11.40;99.90
5334;DHT22;2689;50.954;7.116;2022-11-18T15:48:12;11.50;99.90
5334;DHT22;2689;50.954;7.116;2022-11-18T15:50:40;11.40;99.90
5334;DHT22;2689;50.954;7.116;2022-11-18T15:53:09;11.40;99.90
5334;DHT22;2689;50.954;7.116;2022-11-18T15:55:40;11.30;99.90
5334;DHT22;2689;50.954;7.116;2022-11-18T15:58:08;11.20;99.90
5334;DHT22;2689;50.954;7.116;2022-11-18T16:00:35;11.10;99.90
5334;DHT22;2689;50.954;7.116;2022-11-18T16:03:16;11.10;99.90
5334;DHT22;2689;50.954;7.116;2022-11-18T16:05:44;11.00;99.90
5334;DHT22;2689;50.954;7.116;2022-11-18T16:08:11;11.00;99.90
5334;DHT22;2689;50.954;7.116;2022-11-18T16:10:37;10.90;99.90
5334;DHT22;2689;50.954;7.116;2022-11-18T16:13:22;10.90;99.90
5334;DHT22;2689;50.954;7.116;2022-11-18T16:15:49;10.90;99.90
5334;DHT22;2689;50.954;7.116;2022-11-18T16:18:16;10.90;99.90
5334;DHT22;2689;50.954;7.116;2022-11-18T16:20:45;10.90;99.90
5334;DHT22;2689;50.954;7.116;2022-11-18T16:23:13;10.80;99.90
5334;DHT22;2689;50.954;7.116;2022-11-18T16:25:43;10.80;99.90
5334;DHT22;2689;50.954;7.116;2022-11-18T16:28:10;10.70;99.90
5334;DHT22;2689;50.954;7.116;2022-11-18T16:30:37;10.60;99.90
5334;DHT22;2689;50.954;7.116;2022-11-18T16:33:21;10.50;99.90
5334;DHT22;2689;50.954;7.116;2022-11-18T16:35:49;10.50;99.90
5334;DHT22;2689;50.954;7.116;2022-11-18T16:38:16;10.40;99.90
5334;DHT22;2689;50.954;7.116;2022-11-18T16:40:43;10.40;99.90
5334;DHT22;2689;50.954;7.116;2022-11-18T16:43:10;10.40;99.90
5334;DHT22;2689;50.954;7.116;2022-11-18T16:45:36;10.40;99.90
5334;DHT22;2689;50.954;7.116;2022-11-18T16:48:04;10.40;99.90
5334;DHT22;2689;50.954;7.116;2022-11-18T16:50:30;10.30;99.90